Time;durP1;ratioP1;P1;durP2;ratioP2;P2;SDS_P1;SDS_P2;PMS_P1;PMS_P2;Temp;Humidity;BMP_temperature;BMP_pressure;BME280_temperature;BME280_humidity;BME280_pressure;Samples;Min_cycle;Max_cycle;Signal;HPM_P1;HPM_P2
2024/01/13 00:00:35;;;;;;;;;;;27.80;99.90;;;;;;5097002;28;19908;-70
2024/01/13 00:03:02;;;;;;;;;;;27.90;99.90;;;;;;5096801;28;20418;-69
2024/01/13 00:05:28;;;;;;;;;;;28.10;99.90;;;;;;5096459;28;19952;-71
2024/01/13 00:07:55;;;;;;;;;;;28.30;99.90;;;;;;5096760;28;19914;-72
2024/01/13 00:10:22;;;;;;;;;;;28.50;99.90;;;;;;5096118;28;20365;-69
2024/01/13 00:12:48;;;;;;;;;;;28.80;99.90;;;;;;5096182;28;19976;-67
2024/01/13 00:15:15;;;;;;;;;;;28.90;99.90;;;;;;5097155;28;20369;-73
2024/01/13 00:17:42;;;;;;;;;;;29.10;99.90;;;;;;5096484;28;20346;-73
2024/01/13 00:20:08;;;;;;;;;;;29.30;99.90;;;;;;5096359;28;20357;-74
2024/01/13 00:22:35;;;;;;;;;;;29.40;99.90;;;;;;5096496;28;19908;-69
2024/01/13 00:25:02;;;;;;;;;;;29.50;99.90;;;;;;5096147;28;19915;-74
2024/01/13 00:27:28;;;;;;;;;;;29.50;99.90;;;;;;5095842;28;19908;-74
2024/01/13 00:29:55;;;;;;;;;;;29.50;99.90;;;;;;5095851;28;20011;-73
2024/01/13 00:32:22;;;;;;;;;;;29.70;99.90;;;;;;5095945;28;19961;-74
2024/01/13 00:34:48;;;;;;;;;;;29.70;99.90;;;;;;5116200;28;19947;-71
2024/01/13 00:37:15;;;;;;;;;;;29.80;99.90;;;;;;5116557;28;20307;-71
2024/01/13 00:39:42;;;;;;;;;;;30.00;99.90;;;;;;5116480;28;19931;-71
2024/01/13 00:42:08;;;;;;;;;;;30.10;99.90;;;;;;5116159;28;19908;-70
2024/01/13 00:44:35;;;;;;;;;;;30.10;99.90;;;;;;5116177;28;19995;-72
2024/01/13 00:47:02;;;;;;;;;;;30.10;99.90;;;;;;5115847;28;20969;-74
2024/01/13 00:49:28;;;;;;;;;;;30.00;99.90;;;;;;5116045;28;19971;-71
2024/01/13 00:51:55;;;;;;;;;;;30.10;99.90;;;;;;5116201;28;19998;-72
2024/01/13 00:54:22;;;;;;;;;;;30.00;99.90;;;;;;5115824;28;19908;-70
2024/01/13 00:56:49;;;;;;;;;;;30.20;99.90;;;;;;5116016;28;20006;-68
2024/01/13 00:59:15;;;;;;;;;;;30.30;99.90;;;;;;5115908;28;19955;-70
2024/01/13 01:01:42;;;;;;;;;;;30.50;99.90;;;;;;5116187;28;19988;-74
2024/01/13 01:04:09;;;;;;;;;;;30.80;99.90;;;;;;5115541;28;19943;-68
2024/01/13 01:06:35;;;;;;;;;;;30.90;99.90;;;;;;5115947;28;19912;-72
2024/01/13 01:09:02;;;;;;;;;;;31.10;99.90;;;;;;5115500;28;20302;-72
2024/01/13 01:11:28;;;;;;;;;;;30.80;99.90;;;;;;5115818;28;20002;-71
2024/01/13 01:13:55;;;;;;;;;;;30.90;99.90;;;;;;5115905;28;19908;-72
2024/01/13 01:16:22;;;;;;;;;;;30.90;99.90;;;;;;5115867;28;19908;-75
2024/01/13 01:18:48;;;;;;;;;;;31.00;99.90;;;;;;5115610;28;20328;-72
2024/01/13 01:21:16;;;;;;;;;;;31.20;99.90;;;;;;5115757;28;19908;-71
2024/01/13 01:23:42;;;;;;;;;;;31.30;99.90;;;;;;5115818;28;20268;-72
2024/01/13 01:26:09;;;;;;;;;;;31.30;99.90;;;;;;5115890;28;20006;-73
2024/01/13 01:28:36;;;;;;;;;;;31.40;99.90;;;;;;5115607;28;19952;-73
2024/01/13 01:31:03;;;;;;;;;;;31.40;99.90;;;;;;5115140;28;20292;-73
2024/01/13 01:33:30;;;;;;;;;;;31.50;99.90;;;;;;5115385;28;20375;-71
2024/01/13 01:35:57;;;;;;;;;;;31.60;99.90;;;;;;5115534;28;19961;-71
2024/01/13 01:38:23;;;;;;;;;;;31.50;99.90;;;;;;5115426;28;19941;-73
2024/01/13 01:40:53;;;;;;;;;;;31.70;99.90;;;;;;5115352;28;19912;-70
2024/01/13 01:43:20;;;;;;;;;;;31.80;99.90;;;;;;5115238;28;19908;-71
2024/01/13 01:45:51;;;;;;;;;;;32.00;99.90;;;;;;5115074;28;20322;-73
2024/01/13 01:48:18;;;;;;;;;;;31.90;99.90;;;;;;5115368;28;19953;-72
2024/01/13 01:50:45;;;;;;;;;;;32.20;99.90;;;;;;5114888;28;19919;-71
2024/01/13 01:53:14;;;;;;;;;;;32.30;99.80;;;;;;5114969;28;20011;-69
2024/01/13 01:55:41;;;;;;;;;;;32.30;99.30;;;;;;5114978;28;19942;-70
2024/01/13 01:58:07;;;;;;;;;;;32.20;99.70;;;;;;5115133;28;20280;-71
2024/01/13 02:00:34;;;;;;;;;;;32.20;99.30;;;;;;5115268;28;19908;-69
2024/01/13 02:03:01;;;;;;;;;;;32.50;99.60;;;;;;5114870;28;19915;-67
2024/01/13 02:05:28;;;;;;;;;;;32.40;99.20;;;;;;5114497;28;20010;-70
2024/01/13 02:07:55;;;;;;;;;;;32.50;99.20;;;;;;5114685;28;19907;-71
2024/01/13 02:10:22;;;;;;;;;;;32.70;99.20;;;;;;5096229;28;19969;-69
2024/01/13 02:12:51;;;;;;;;;;;32.90;99.20;;;;;;5114726;28;19908;-72
2024/01/13 02:15:18;;;;;;;;;;;33.10;99.00;;;;;;5095933;28;20325;-73
2024/01/13 02:17:46;;;;;;;;;;;33.10;98.50;;;;;;5114326;28;19908;-70
2024/01/13 02:20:13;;;;;;;;;;;33.00;98.10;;;;;;5096233;28;20357;-72
2024/01/13 02:22:41;;;;;;;;;;;32.70;98.70;;;;;;5114404;28;19908;-69
2024/01/13 02:25:09;;;;;;;;;;;32.50;98.80;;;;;;5114472;28;19908;-69
2024/01/13 02:27:35;;;;;;;;;;;32.30;98.40;;;;;;5114316;28;19912;-71
2024/01/13 02:30:03;;;;;;;;;;;32.50;98.80;;;;;;5114130;28;19916;-70
2024/01/13 02:32:30;;;;;;;;;;;32.50;98.60;;;;;;5095929;28;19912;-71
2024/01/13 02:34:57;;;;;;;;;;;32.50;99.50;;;;;;5114287;28;20279;-72
2024/01/13 02:37:24;;;;;;;;;;;32.50;98.50;;;;;;5114366;28;19914;-68
2024/01/13 02:39:53;;;;;;;;;;;32.60;99.20;;;;;;5113867;28;19915;-67
2024/01/13 02:42:20;;;;;;;;;;;32.30;98.80;;;;;;5113924;28;20273;-71
2024/01/13 02:44:48;;;;;;;;;;;32.50;99.30;;;;;;5113932;28;19918;-69
2024/01/13 02:47:16;;;;;;;;;;;32.50;98.90;;;;;;5096395;28;19918;-69
2024/01/13 02:49:42;;;;;;;;;;;32.70;99.00;;;;;;5114040;28;20429;-71
2024/01/13 02:52:09;;;;;;;;;;;32.70;98.50;;;;;;5112859;28;19937;-70
2024/01/13 02:54:36;;;;;;;;;;;32.70;98.70;;;;;;5113555;28;20330;-70
2024/01/13 02:57:03;;;;;;;;;;;32.50;99.20;;;;;;5113930;28;19911;-70
2024/01/13 02:59:30;;;;;;;;;;;32.70;98.40;;;;;;5113840;28;20354;-72
2024/01/13 03:01:57;;;;;;;;;;;32.70;98.90;;;;;;5114055;28;19965;-69
2024/01/13 03:04:24;;;;;;;;;;;33.00;99.10;;;;;;5113542;28;20288;-72
2024/01/13 03:06:50;;;;;;;;;;;33.30;98.20;;;;;;5113708;28;19908;-71
2024/01/13 03:09:17;;;;;;;;;;;33.60;98.30;;;;;;5114258;28;19919;-73
2024/01/13 03:11:45;;;;;;;;;;;33.90;97.60;;;;;;5113617;28;19918;-71
2024/01/13 03:14:11;;;;;;;;;;;34.30;97.40;;;;;;5113359;28;19911;-71
2024/01/13 03:16:38;;;;;;;;;;;34.80;96.50;;;;;;5113667;28;19966;-72
2024/01/13 03:19:06;;;;;;;;;;;35.20;96.30;;;;;;5113692;28;19932;-70
2024/01/13 03:21:32;;;;;;;;;;;35.40;95.00;;;;;;5113491;28;19982;-72
2024/01/13 03:23:59;;;;;;;;;;;35.80;95.20;;;;;;5113318;28;19915;-70
2024/01/13 03:26:26;;;;;;;;;;;36.20;94.90;;;;;;5113141;28;19908;-72
2024/01/13 03:28:53;;;;;;;;;;;36.20;94.00;;;;;;5113321;28;19914;-75
2024/01/13 03:31:20;;;;;;;;;;;37.00;93.90;;;;;;5113632;28;19988;-75
2024/01/13 03:33:46;;;;;;;;;;;38.20;92.90;;;;;;5113349;28;19911;-72
2024/01/13 03:36:13;;;;;;;;;;;38.80;91.50;;;;;;5113011;28;19960;-72
2024/01/13 03:38:40;;;;;;;;;;;39.40;90.20;;;;;;5113181;28;20375;-72
2024/01/13 03:41:07;;;;;;;;;;;40.20;89.10;;;;;;5113121;28;19912;-69
2024/01/13 03:43:34;;;;;;;;;;;40.00;86.90;;;;;;5113269;28;19908;-73
2024/01/13 03:46:00;;;;;;;;;;;39.90;87.90;;;;;;5113471;28;19908;-69
2024/01/13 03:48:27;;;;;;;;;;;40.70;85.30;;;;;;5113139;28;19958;-69
2024/01/13 03:50:54;;;;;;;;;;;40.90;84.90;;;;;;5112975;28;20360;-71
2024/01/13 03:53:20;;;;;;;;;;;41.40;84.40;;;;;;5112962;28;19908;-71
2024/01/13 03:55:47;;;;;;;;;;;41.80;82.20;;;;;;5112939;28;19920;-71
2024/01/13 03:58:14;;;;;;;;;;;42.10;80.50;;;;;;5112833;28;20265;-71
2024/01/13 04:00:41;;;;;;;;;;;41.80;80.20;;;;;;5112874;28;20447;-71
2024/01/13 04:03:07;;;;;;;;;;;41.10;79.90;;;;;;5113098;28;19915;-67
2024/01/13 04:05:34;;;;;;;;;;;40.90;79.90;;;;;;5113032;28;19970;-72
2024/01/13 04:08:01;;;;;;;;;;;41.40;80.20;;;;;;5111483;28;19927;-72
2024/01/13 04:10:27;;;;;;;;;;;41.80;80.60;;;;;;5112389;28;19919;-69
2024/01/13 04:12:56;;;;;;;;;;;42.20;78.50;;;;;;5112514;28;19908;-71
2024/01/13 04:15:22;;;;;;;;;;;42.80;76.50;;;;;;5112708;28;19912;-72
2024/01/13 04:17:49;;;;;;;;;;;42.10;76.30;;;;;;5112681;28;20021;-72
2024/01/13 04:20:16;;;;;;;;;;;42.50;75.90;;;;;;5112310;28;19953;-69
2024/01/13 04:22:42;;;;;;;;;;;42.20;76.50;;;;;;5112298;28;20322;-69
2024/01/13 04:25:09;;;;;;;;;;;41.70;76.90;;;;;;5112447;28;19969;-72
2024/01/13 04:27:36;;;;;;;;;;;41.90;76.60;;;;;;5112698;28;19908;-70
2024/01/13 04:30:02;;;;;;;;;;;41.80;77.20;;;;;;5111851;28;19941;-72
2024/01/13 04:32:29;;;;;;;;;;;41.50;76.80;;;;;;5112252;28;19914;-70
2024/01/13 04:34:56;;;;;;;;;;;40.70;78.20;;;;;;5112518;28;19915;-73
2024/01/13 04:37:22;;;;;;;;;;;40.40;79.20;;;;;;5112330;28;19933;-67
2024/01/13 04:39:49;;;;;;;;;;;40.70;79.00;;;;;;5113955;28;19961;-71
2024/01/13 04:42:16;;;;;;;;;;;40.90;77.50;;;;;;5113213;28;20330;-68
2024/01/13 04:44:42;;;;;;;;;;;41.50;77.50;;;;;;5114844;28;19918;-72
2024/01/13 04:47:09;;;;;;;;;;;41.50;77.60;;;;;;5095813;28;19914;-72
2024/01/13 04:49:36;;;;;;;;;;;42.10;76.40;;;;;;5095994;28;19982;-68
2024/01/13 04:52:02;;;;;;;;;;;40.60;77.30;;;;;;5122402;27;19955;-73
2024/01/13 04:54:29;;;;;;;;;;;40.20;78.90;;;;;;5122013;27;20276;-72
2024/01/13 04:56:55;;;;;;;;;;;40.00;77.80;;;;;;5097549;28;20326;-70
2024/01/13 04:59:22;;;;;;;;;;;39.80;80.00;;;;;;5116132;28;19908;-74
2024/01/13 05:01:49;;;;;;;;;;;39.20;79.60;;;;;;5101479;28;19912;-72
2024/01/13 05:04:15;;;;;;;;;;;38.60;81.30;;;;;;5103167;28;19916;-71
2024/01/13 05:06:42;;;;;;;;;;;39.10;81.40;;;;;;5109030;28;19963;-76
2024/01/13 05:09:09;;;;;;;;;;;39.40;81.60;;;;;;5113274;27;19916;-70
2024/01/13 05:11:35;;;;;;;;;;;40.00;80.20;;;;;;5108194;28;19919;-71
2024/01/13 05:14:02;;;;;;;;;;;40.00;80.00;;;;;;5120742;27;19912;-75
2024/01/13 05:16:29;;;;;;;;;;;39.70;79.40;;;;;;5077831;28;19970;-69
2024/01/13 05:18:55;;;;;;;;;;;39.80;81.20;;;;;;5111211;27;19973;-69
2024/01/13 05:21:22;;;;;;;;;;;40.00;80.40;;;;;;5115607;28;19998;-69
2024/01/13 05:23:49;;;;;;;;;;;38.80;80.80;;;;;;5115380;28;19918;-69
2024/01/13 05:26:15;;;;;;;;;;;39.30;80.30;;;;;;5108662;28;20321;-72
2024/01/13 05:28:42;;;;;;;;;;;39.80;80.20;;;;;;5117974;27;19991;-74
2024/01/13 05:31:09;;;;;;;;;;;39.90;79.30;;;;;;5113525;28;19920;-73
2024/01/13 05:33:35;;;;;;;;;;;40.50;78.20;;;;;;5100404;28;19919;-74
2024/01/13 05:36:02;;;;;;;;;;;39.90;79.00;;;;;;5113067;28;20364;-70
2024/01/13 05:38:28;;;;;;;;;;;39.10;80.40;;;;;;5114538;27;19915;-73
2024/01/13 05:40:55;;;;;;;;;;;39.50;80.80;;;;;;5114063;28;20330;-68
2024/01/13 05:43:22;;;;;;;;;;;39.70;79.80;;;;;;5113922;27;19964;-69
2024/01/13 05:45:48;;;;;;;;;;;39.60;79.20;;;;;;5115097;28;19912;-72
2024/01/13 05:48:15;;;;;;;;;;;39.20;80.70;;;;;;5114765;28;19919;-68
2024/01/13 05:50:42;;;;;;;;;;;39.10;82.10;;;;;;5115132;28;20331;-71
2024/01/13 05:53:08;;;;;;;;;;;38.70;81.70;;;;;;5114775;27;20305;-76
2024/01/13 05:55:35;;;;;;;;;;;38.40;82.80;;;;;;5112928;28;19920;-74
2024/01/13 05:58:01;;;;;;;;;;;39.40;81.50;;;;;;5112232;28;19935;-69
2024/01/13 06:00:28;;;;;;;;;;;39.30;80.30;;;;;;5112431;28;20034;-76
2024/01/13 06:02:56;;;;;;;;;;;39.20;80.10;;;;;;5113205;28;20489;-70
2024/01/13 06:05:23;;;;;;;;;;;38.50;80.30;;;;;;5111873;28;19915;-68
2024/01/13 06:07:49;;;;;;;;;;;37.50;82.60;;;;;;5112874;28;19920;-73
2024/01/13 06:10:19;;;;;;;;;;;37.40;83.00;;;;;;5113802;28;19920;-69
2024/01/13 06:12:46;;;;;;;;;;;37.30;83.40;;;;;;5114652;28;19927;-68
2024/01/13 06:15:13;;;;;;;;;;;36.00;84.50;;;;;;5114361;28;19907;-68
2024/01/13 06:17:39;;;;;;;;;;;35.20;87.60;;;;;;5114039;28;19908;-67
2024/01/13 06:20:08;;;;;;;;;;;34.70;87.70;;;;;;5095341;28;20397;-69
2024/01/13 06:22:35;;;;;;;;;;;34.30;89.90;;;;;;5113924;28;19929;-72
2024/01/13 06:25:01;;;;;;;;;;;33.60;90.20;;;;;;5113469;28;19912;-77
2024/01/13 06:27:28;;;;;;;;;;;33.50;90.90;;;;;;5113740;28;19946;-71
2024/01/13 06:29:55;;;;;;;;;;;32.80;91.40;;;;;;5118990;27;20329;-76
2024/01/13 06:32:22;;;;;;;;;;;32.40;92.40;;;;;;5095675;28;19951;-69
2024/01/13 06:34:48;;;;;;;;;;;32.40;92.50;;;;;;5113598;28;19912;-69
2024/01/13 06:37:15;;;;;;;;;;;32.60;92.40;;;;;;5113366;28;19908;-70
2024/01/13 06:39:42;;;;;;;;;;;32.50;92.70;;;;;;5113146;27;19962;-69
2024/01/13 06:42:08;;;;;;;;;;;32.40;93.20;;;;;;5113713;28;19908;-73
2024/01/13 06:44:35;;;;;;;;;;;32.50;93.30;;;;;;5113958;28;20276;-71
2024/01/13 06:47:02;;;;;;;;;;;32.60;93.20;;;;;;5111962;28;19912;-70
2024/01/13 06:49:29;;;;;;;;;;;32.40;93.40;;;;;;5108274;28;19928;-69
2024/01/13 06:51:55;;;;;;;;;;;32.60;93.60;;;;;;5113781;28;20476;-68
2024/01/13 06:54:22;;;;;;;;;;;32.60;93.60;;;;;;5113146;27;20018;-68
2024/01/13 06:56:48;;;;;;;;;;;32.50;93.70;;;;;;5113085;28;20010;-67
2024/01/13 06:59:15;;;;;;;;;;;32.70;93.60;;;;;;5112674;28;19915;-68
2024/01/13 07:01:42;;;;;;;;;;;32.40;93.60;;;;;;5112800;28;20291;-70
2024/01/13 07:04:09;;;;;;;;;;;32.00;94.50;;;;;;5112980;28;19912;-68
2024/01/13 07:06:36;;;;;;;;;;;31.50;95.10;;;;;;5113527;28;19915;-72
2024/01/13 07:09:03;;;;;;;;;;;31.30;96.00;;;;;;5112123;28;19938;-71
2024/01/13 07:11:30;;;;;;;;;;;31.00;96.90;;;;;;5113119;28;19922;-72
2024/01/13 07:13:56;;;;;;;;;;;31.20;96.90;;;;;;5113167;27;19919;-68
2024/01/13 07:16:23;;;;;;;;;;;31.20;96.50;;;;;;5113309;28;19919;-69
2024/01/13 07:18:50;;;;;;;;;;;30.70;97.30;;;;;;5110834;28;19927;-72
2024/01/13 07:21:16;;;;;;;;;;;30.60;97.40;;;;;;5114573;28;19907;-77
2024/01/13 07:23:43;;;;;;;;;;;30.60;97.50;;;;;;5111634;28;19912;-73
2024/01/13 07:26:10;;;;;;;;;;;30.40;97.40;;;;;;5113369;28;19908;-76
2024/01/13 07:28:37;;;;;;;;;;;30.20;98.30;;;;;;5111797;28;19915;-75
2024/01/13 07:31:03;;;;;;;;;;;30.30;98.60;;;;;;5112754;28;19916;-74
2024/01/13 07:33:30;;;;;;;;;;;30.30;99.10;;;;;;5113011;28;19987;-74
2024/01/13 07:35:57;;;;;;;;;;;30.50;98.70;;;;;;5112951;28;19918;-77
2024/01/13 07:38:24;;;;;;;;;;;30.20;99.30;;;;;;5107939;28;19923;-70
2024/01/13 07:40:50;;;;;;;;;;;30.30;99.20;;;;;;5100939;28;20373;-74
2024/01/13 07:43:17;;;;;;;;;;;30.30;99.10;;;;;;5107955;28;19916;-72
2024/01/13 07:45:43;;;;;;;;;;;30.10;99.20;;;;;;5113941;28;19912;-72
2024/01/13 07:48:10;;;;;;;;;;;29.90;99.90;;;;;;5107355;28;20016;-76
2024/01/13 07:50:37;;;;;;;;;;;29.80;99.90;;;;;;5110453;27;20109;-74
2024/01/13 07:53:03;;;;;;;;;;;29.60;99.90;;;;;;5096358;28;19934;-71
2024/01/13 07:55:30;;;;;;;;;;;29.50;99.90;;;;;;5106937;28;20321;-69
2024/01/13 07:57:57;;;;;;;;;;;29.30;99.90;;;;;;5101000;28;19914;-74
2024/01/13 08:00:25;;;;;;;;;;;29.10;99.90;;;;;;5095325;28;19912;-69
2024/01/13 08:02:53;;;;;;;;;;;29.00;99.90;;;;;;5099659;28;19912;-72
2024/01/13 08:05:20;;;;;;;;;;;28.80;99.90;;;;;;5102891;28;19912;-77
2024/01/13 08:07:47;;;;;;;;;;;28.50;99.90;;;;;;5105706;28;19912;-69
2024/01/13 08:10:13;;;;;;;;;;;28.40;99.90;;;;;;5101553;28;19935;-75
2024/01/13 08:12:40;;;;;;;;;;;28.20;99.90;;;;;;5099557;28;19908;-70
2024/01/13 08:15:07;;;;;;;;;;;28.10;99.90;;;;;;5102711;28;19916;-71
2024/01/13 08:17:33;;;;;;;;;;;28.00;99.90;;;;;;5103794;28;19912;-75
2024/01/13 08:20:04;;;;;;;;;;;28.10;99.90;;;;;;5107752;27;19923;-77
2024/01/13 08:22:30;;;;;;;;;;;28.30;99.90;;;;;;5105912;28;20376;-71
2024/01/13 08:24:57;;;;;;;;;;;28.30;99.90;;;;;;5108759;27;19920;-70
2024/01/13 08:27:24;;;;;;;;;;;28.30;99.90;;;;;;5112368;27;19911;-74
2024/01/13 08:29:51;;;;;;;;;;;28.40;99.90;;;;;;5111283;27;19963;-70
2024/01/13 08:32:17;;;;;;;;;;;28.30;99.90;;;;;;5116956;27;20024;-70
2024/01/13 08:34:44;;;;;;;;;;;28.20;99.90;;;;;;5110566;27;19935;-71
2024/01/13 08:37:11;;;;;;;;;;;28.20;99.90;;;;;;5105464;28;20384;-76
2024/01/13 08:39:38;;;;;;;;;;;28.20;99.90;;;;;;5106457;28;20057;-73
2024/01/13 08:42:05;;;;;;;;;;;28.10;99.90;;;;;;5103932;28;19918;-68
2024/01/13 08:44:31;;;;;;;;;;;27.90;99.90;;;;;;5106365;27;19978;-76
2024/01/13 08:46:58;;;;;;;;;;;27.70;99.90;;;;;;5106314;28;19988;-69
2024/01/13 08:49:25;;;;;;;;;;;27.80;99.90;;;;;;5114179;28;19916;-69
2024/01/13 08:51:52;;;;;;;;;;;27.80;99.90;;;;;;5110795;28;20659;-77
2024/01/13 08:54:19;;;;;;;;;;;27.90;99.90;;;;;;5102612;28;19919;-74
2024/01/13 08:56:45;;;;;;;;;;;27.90;99.90;;;;;;5099407;28;19916;-69
2024/01/13 08:59:12;;;;;;;;;;;27.90;99.90;;;;;;5110688;28;20391;-69
2024/01/13 09:01:38;;;;;;;;;;;27.90;99.90;;;;;;5112779;28;19912;-73
2024/01/13 09:04:06;;;;;;;;;;;27.90;99.90;;;;;;5100206;27;19919;-75
2024/01/13 09:06:33;;;;;;;;;;;27.90;99.90;;;;;;5106556;28;20042;-72
2024/01/13 09:08:59;;;;;;;;;;;27.80;99.90;;;;;;5102941;27;19912;-72
2024/01/13 09:11:26;;;;;;;;;;;27.80;99.90;;;;;;5102055;28;19979;-74
2024/01/13 09:13:53;;;;;;;;;;;27.80;99.90;;;;;;5105519;27;19943;-75
2024/01/13 09:16:19;;;;;;;;;;;27.60;99.90;;;;;;5104523;28;20000;-70
2024/01/13 09:18:46;;;;;;;;;;;27.60;99.90;;;;;;5105404;27;19934;-69
2024/01/13 09:21:13;;;;;;;;;;;27.60;99.90;;;;;;5106979;28;19912;-77
2024/01/13 09:23:42;;;;;;;;;;;27.60;99.90;;;;;;5106657;28;19918;-71
2024/01/13 09:26:09;;;;;;;;;;;27.60;99.90;;;;;;5107735;28;19998;-71
2024/01/13 09:28:35;;;;;;;;;;;27.60;99.90;;;;;;5102119;28;19981;-70
2024/01/13 09:31:02;;;;;;;;;;;27.60;99.90;;;;;;5105649;27;19928;-75
2024/01/13 09:33:28;;;;;;;;;;;27.60;99.90;;;;;;5105841;28;19964;-74
2024/01/13 09:35:55;;;;;;;;;;;27.60;99.90;;;;;;5103554;28;19951;-71
2024/01/13 09:38:22;;;;;;;;;;;27.60;99.90;;;;;;5102241;28;19947;-71
2024/01/13 09:40:49;;;;;;;;;;;27.60;99.90;;;;;;5105469;28;19912;-73
2024/01/13 09:43:22;;;;;;;;;;;27.60;99.90;;;;;;5102392;28;19912;-73
2024/01/13 09:45:52;;;;;;;;;;;27.60;99.90;;;;;;5100694;28;20393;-66
2024/01/13 09:48:20;;;;;;;;;;;27.60;99.90;;;;;;5102603;28;19919;-74
2024/01/13 09:50:53;;;;;;;;;;;27.60;99.90;;;;;;5103291;28;19920;-72
2024/01/13 09:53:30;;;;;;;;;;;27.50;99.90;;;;;;5103024;28;19972;-73
2024/01/13 09:56:17;;;;;;;;;;;27.60;99.90;;;;;;5102444;28;19928;-73
2024/01/13 09:58:44;;;;;;;;;;;27.50;99.90;;;;;;5103571;28;19911;-75
2024/01/13 10:01:11;;;;;;;;;;;27.50;99.90;;;;;;5103994;28;19998;-72
2024/01/13 10:03:38;;;;;;;;;;;27.40;99.90;;;;;;5101242;28;20364;-69
2024/01/13 10:06:04;;;;;;;;;;;27.30;99.90;;;;;;5104898;28;20372;-69
2024/01/13 10:08:32;;;;;;;;;;;27.30;99.90;;;;;;5103116;28;20377;-72
2024/01/13 10:11:04;;;;;;;;;;;27.30;99.90;;;;;;5107675;28;19928;-69
2024/01/13 10:13:31;;;;;;;;;;;27.30;99.90;;;;;;5099790;28;20264;-67
2024/01/13 10:15:58;;;;;;;;;;;27.40;99.90;;;;;;5102972;28;19947;-68
2024/01/13 10:18:25;;;;;;;;;;;27.40;99.90;;;;;;5104245;28;19907;-72
2024/01/13 10:20:51;;;;;;;;;;;27.50;99.90;;;;;;5102891;28;19995;-72
2024/01/13 10:23:18;;;;;;;;;;;27.50;99.90;;;;;;5102156;28;19923;-66
2024/01/13 10:25:45;;;;;;;;;;;27.60;99.90;;;;;;5100641;28;19912;-74
2024/01/13 10:28:11;;;;;;;;;;;27.50;99.90;;;;;;5101649;28;19920;-77
2024/01/13 10:30:38;;;;;;;;;;;27.60;99.90;;;;;;5105799;28;20395;-70
2024/01/13 10:33:05;;;;;;;;;;;27.60;99.90;;;;;;5098200;28;19920;-68
2024/01/13 10:35:32;;;;;;;;;;;27.60;99.90;;;;;;5112721;28;19912;-77
2024/01/13 10:37:59;;;;;;;;;;;27.50;99.90;;;;;;5112073;28;19915;-72
2024/01/13 10:40:27;;;;;;;;;;;27.50;99.90;;;;;;5114064;28;19953;-77
2024/01/13 10:42:57;;;;;;;;;;;27.50;99.90;;;;;;5113651;28;19908;-71
2024/01/13 10:45:25;;;;;;;;;;;27.50;99.90;;;;;;5113890;28;19918;-76
2024/01/13 10:47:53;;;;;;;;;;;27.40;99.90;;;;;;5113113;28;19915;-74
2024/01/13 10:50:20;;;;;;;;;;;27.40;99.90;;;;;;5108788;28;20001;-74
2024/01/13 10:52:52;;;;;;;;;;;27.30;99.90;;;;;;5078410;28;19917;-67
2024/01/13 10:55:20;;;;;;;;;;;27.20;99.90;;;;;;5098565;28;19919;-78
2024/01/13 10:57:47;;;;;;;;;;;27.10;99.90;;;;;;5091502;28;19915;-75
2024/01/13 11:00:14;;;;;;;;;;;27.10;99.90;;;;;;5103571;28;19908;-67
2024/01/13 11:02:42;;;;;;;;;;;27.00;99.90;;;;;;5113356;28;20249;-74
2024/01/13 11:05:10;;;;;;;;;;;27.00;99.90;;;;;;5113766;28;20420;-71
2024/01/13 11:07:37;;;;;;;;;;;27.00;99.90;;;;;;5113758;28;19916;-77
2024/01/13 11:10:08;;;;;;;;;;;27.00;99.90;;;;;;5113383;28;19923;-71
2024/01/13 11:12:41;;;;;;;;;;;27.00;99.90;;;;;;5100322;28;20258;-70
2024/01/13 11:15:09;;;;;;;;;;;27.00;99.90;;;;;;5092565;28;19916;-72
2024/01/13 11:17:35;;;;;;;;;;;27.00;99.90;;;;;;5097803;28;19908;-70
2024/01/13 11:20:02;;;;;;;;;;;27.00;99.90;;;;;;5093205;28;19908;-66
2024/01/13 11:22:31;;;;;;;;;;;27.00;99.90;;;;;;5107954;28;19907;-70
2024/01/13 11:24:58;;;;;;;;;;;26.90;99.90;;;;;;5113451;28;19908;-69
2024/01/13 11:27:25;;;;;;;;;;;26.90;99.90;;;;;;5113020;28;20418;-71
2024/01/13 11:29:51;;;;;;;;;;;26.80;99.90;;;;;;5106862;28;19965;-73
2024/01/13 11:32:18;;;;;;;;;;;26.70;99.90;;;;;;5102413;28;19912;-67
2024/01/13 11:34:45;;;;;;;;;;;26.70;99.90;;;;;;5102701;28;19920;-71
2024/01/13 11:37:12;;;;;;;;;;;26.60;99.90;;;;;;5099658;28;19919;-70
2024/01/13 11:39:39;;;;;;;;;;;26.50;99.90;;;;;;5103466;28;20386;-77
2024/01/13 11:42:05;;;;;;;;;;;26.40;99.90;;;;;;5101286;28;19961;-70
2024/01/13 11:44:36;;;;;;;;;;;26.30;99.90;;;;;;5084432;28;19916;-75
2024/01/13 11:47:06;;;;;;;;;;;26.00;99.90;;;;;;5102409;28;20003;-68
2024/01/13 11:49:37;;;;;;;;;;;25.90;99.90;;;;;;5101789;28;19919;-71
2024/01/13 11:52:04;;;;;;;;;;;25.70;99.90;;;;;;5102299;28;19923;-72
2024/01/13 11:54:32;;;;;;;;;;;25.60;99.90;;;;;;5100187;28;19920;-68
2024/01/13 11:56:59;;;;;;;;;;;25.50;99.90;;;;;;5102318;28;20432;-72
2024/01/13 11:59:26;;;;;;;;;;;25.40;99.90;;;;;;5101905;28;20356;-75
2024/01/13 12:01:54;;;;;;;;;;;25.30;99.90;;;;;;5103207;28;19915;-75
2024/01/13 12:04:21;;;;;;;;;;;25.30;99.90;;;;;;5106343;28;20036;-70
2024/01/13 12:06:48;;;;;;;;;;;25.20;99.90;;;;;;5113048;28;19916;-67
2024/01/13 12:09:16;;;;;;;;;;;25.10;99.90;;;;;;5112655;28;20515;-72
2024/01/13 12:11:50;;;;;;;;;;;25.00;99.90;;;;;;5112779;28;19912;-71
2024/01/13 12:14:17;;;;;;;;;;;24.90;99.90;;;;;;5102893;28;19919;-79
2024/01/13 12:16:44;;;;;;;;;;;24.90;99.90;;;;;;5092293;28;19946;-67
2024/01/13 12:19:10;;;;;;;;;;;24.90;99.90;;;;;;5092462;28;20445;-71
2024/01/13 12:21:37;;;;;;;;;;;24.80;99.90;;;;;;5093041;28;19919;-68
2024/01/13 12:24:04;;;;;;;;;;;24.70;99.90;;;;;;5100562;28;19911;-69
2024/01/13 12:26:31;;;;;;;;;;;24.60;99.90;;;;;;5113096;28;19974;-80
2024/01/13 12:28:59;;;;;;;;;;;24.60;99.90;;;;;;5106809;28;19923;-77
2024/01/13 12:31:26;;;;;;;;;;;24.50;99.90;;;;;;5092951;28;19916;-75
2024/01/13 12:33:53;;;;;;;;;;;24.50;99.90;;;;;;5074780;28;19917;-70
2024/01/13 12:36:19;;;;;;;;;;;24.50;99.90;;;;;;5092575;28;19931;-76
2024/01/13 12:38:47;;;;;;;;;;;24.30;99.90;;;;;;5093027;28;19912;-68
2024/01/13 12:41:13;;;;;;;;;;;24.40;99.90;;;;;;5092430;28;20006;-67
2024/01/13 12:43:40;;;;;;;;;;;24.30;99.90;;;;;;5093179;28;19923;-71
2024/01/13 12:46:07;;;;;;;;;;;24.30;99.90;;;;;;5092850;28;19912;-73
2024/01/13 12:48:34;;;;;;;;;;;24.30;99.90;;;;;;5092399;28;19908;-75
2024/01/13 12:51:11;;;;;;;;;;;24.30;99.90;;;;;;5093294;28;20415;-67
2024/01/13 12:53:40;;;;;;;;;;;24.30;99.90;;;;;;5092845;28;19916;-71
2024/01/13 12:56:08;;;;;;;;;;;24.30;99.90;;;;;;5092113;28;20292;-74
2024/01/13 12:58:35;;;;;;;;;;;24.20;99.90;;;;;;5092290;28;19912;-76
2024/01/13 13:01:05;;;;;;;;;;;24.20;99.90;;;;;;5095199;28;20260;-70
2024/01/13 13:03:32;;;;;;;;;;;24.10;99.90;;;;;;5096008;28;19962;-71
2024/01/13 13:05:58;;;;;;;;;;;24.10;99.90;;;;;;5095768;28;20445;-70
2024/01/13 13:08:26;;;;;;;;;;;24.00;99.90;;;;;;5095644;28;20285;-69
2024/01/13 13:10:52;;;;;;;;;;;24.00;99.90;;;;;;5099036;28;20348;-70
2024/01/13 13:13:19;;;;;;;;;;;24.00;99.90;;;;;;5115758;28;19915;-69
2024/01/13 13:15:46;;;;;;;;;;;24.00;99.90;;;;;;5116373;28;19982;-67
2024/01/13 13:18:12;;;;;;;;;;;23.90;99.90;;;;;;5115056;28;19915;-74
2024/01/13 13:20:39;;;;;;;;;;;23.90;99.90;;;;;;5115360;28;19908;-66
2024/01/13 13:23:07;;;;;;;;;;;23.90;99.90;;;;;;5115476;28;19908;-70
2024/01/13 13:25:35;;;;;;;;;;;23.80;99.90;;;;;;5115521;28;19957;-67
2024/01/13 13:28:02;;;;;;;;;;;23.60;99.90;;;;;;5115743;28;19916;-65
2024/01/13 13:30:29;;;;;;;;;;;23.50;99.90;;;;;;5114492;28;19916;-66
2024/01/13 13:32:56;;;;;;;;;;;23.40;99.90;;;;;;5115748;28;20288;-71
2024/01/13 13:35:23;;;;;;;;;;;23.40;99.90;;;;;;5115137;28;19935;-68
2024/01/13 13:37:50;;;;;;;;;;;23.30;99.90;;;;;;5115391;28;19986;-76
2024/01/13 13:40:17;;;;;;;;;;;23.30;99.90;;;;;;5115405;28;19961;-67
2024/01/13 13:42:43;;;;;;;;;;;23.20;99.90;;;;;;5115285;28;19908;-68
2024/01/13 13:45:10;;;;;;;;;;;23.10;99.90;;;;;;5114744;28;20268;-68
2024/01/13 13:47:36;;;;;;;;;;;23.00;99.90;;;;;;5115213;28;19908;-72
2024/01/13 13:50:03;;;;;;;;;;;23.00;99.90;;;;;;5115230;28;19922;-68
2024/01/13 13:52:30;;;;;;;;;;;22.90;99.90;;;;;;5114594;28;19912;-71
2024/01/13 13:54:56;;;;;;;;;;;22.90;99.90;;;;;;5114157;28;19928;-69
2024/01/13 13:57:23;;;;;;;;;;;22.80;99.90;;;;;;5115141;28;19907;-68
2024/01/13 13:59:50;;;;;;;;;;;22.70;99.90;;;;;;5114929;28;19911;-68
2024/01/13 14:02:17;;;;;;;;;;;22.70;99.90;;;;;;5114848;28;19908;-69
2024/01/13 14:04:44;;;;;;;;;;;22.60;99.90;;;;;;5114442;28;20352;-66
2024/01/13 14:07:10;;;;;;;;;;;22.50;99.90;;;;;;5114675;28;20297;-68
2024/01/13 14:09:37;;;;;;;;;;;22.50;99.90;;;;;;5114149;28;19960;-71
2024/01/13 14:12:04;;;;;;;;;;;22.40;99.90;;;;;;5113438;28;20379;-68
2024/01/13 14:14:30;;;;;;;;;;;22.50;99.90;;;;;;5105490;28;19916;-74